sensor_id;sensor_type;location;lat;lon;timestamp;P1;durP1;ratioP1;P2;durP2;ratioP2
13404;SDS011;6773;51.192;7.024;2022-08-01T00:01:51;19.20;;;12.98;;
13404;SDS011;6773;51.192;7.024;2022-08-01T00:04:16;16.83;;;12.32;;
13404;SDS011;6773;51.192;7.024;2022-08-01T00:06:42;15.18;;;12.20;;
13404;SDS011;6773;51.192;7.024;2022-08-01T00:09:08;24.75;;;13.52;;
13404;SDS011;6773;51.192;7.024;2022-08-01T00:11:33;15.40;;;12.30;;
13404;SDS011;6773;51.192;7.024;2022-08-01T00:13:59;14.50;;;12.93;;
13404;SDS011;6773;51.192;7.024;2022-08-01T00:16:24;15.63;;;12.52;;
13404;SDS011;6773;51.192;7.024;2022-08-01T00:18:51;18.00;;;12.10;;
13404;SDS011;6773;51.192;7.024;2022-08-01T00:21:17;16.60;;;12.32;;
13404;SDS011;6773;51.192;7.024;2022-08-01T00:23:43;17.88;;;12.80;;
13404;SDS011;6773;51.192;7.024;2022-08-01T00:26:10;17.20;;;12.32;;
13404;SDS011;6773;51.192;7.024;2022-08-01T00:28:37;21.23;;;12.90;;
13404;SDS011;6773;51.192;7.024;2022-08-01T00:31:02;19.23;;;12.43;;
13404;SDS011;6773;51.192;7.024;2022-08-01T00:33:28;15.75;;;11.80;;
13404;SDS011;6773;51.192;7.024;2022-08-01T00:35:54;15.93;;;12.40;;
13404;SDS011;6773;51.192;7.024;2022-08-01T00:38:20;17.23;;;12.15;;
13404;SDS011;6773;51.192;7.024;2022-08-01T00:40:46;15.93;;;11.88;;
13404;SDS011;6773;51.192;7.024;2022-08-01T00:43:12;14.43;;;11.98;;
13404;SDS011;6773;51.192;7.024;2022-08-01T00:45:38;14.60;;;11.73;;
13404;SDS011;6773;51.192;7.024;2022-08-01T00:48:04;17.30;;;12.88;;
13404;SDS011;6773;51.192;7.024;2022-08-01T00:50:30;16.33;;;12.23;;
13404;SDS011;6773;51.192;7.024;2022-08-01T00:52:56;15.85;;;11.77;;
13404;SDS011;6773;51.192;7.024;2022-08-01T00:55:23;18.17;;;12.57;;
13404;SDS011;6773;51.192;7.024;2022-08-01T00:57:49;18.10;;;12.27;;
13404;SDS011;6773;51.192;7.024;2022-08-01T01:00:15;18.30;;;12.55;;
13404;SDS011;6773;51.192;7.024;2022-08-01T01:02:41;15.50;;;12.63;;
13404;SDS011;6773;51.192;7.024;2022-08-01T01:05:07;18.38;;;13.02;;
13404;SDS011;6773;51.192;7.024;2022-08-01T01:10:28;18.73;;;13.77;;
13404;SDS011;6773;51.192;7.024;2022-08-01T01:13:04;21.33;;;13.20;;
13404;SDS011;6773;51.192;7.024;2022-08-01T01:15:53;19.05;;;13.07;;
13404;SDS011;6773;51.192;7.024;2022-08-01T01:29:17;7.05;;;3.67;;
13404;SDS011;6773;51.192;7.024;2022-08-01T01:32:18;5.88;;;3.78;;
13404;SDS011;6773;51.192;7.024;2022-08-01T01:34:49;5.18;;;3.85;;
13404;SDS011;6773;51.192;7.024;2022-08-01T01:37:20;4.05;;;3.75;;
13404;SDS011;6773;51.192;7.024;2022-08-01T01:39:51;6.47;;;5.07;;
13404;SDS011;6773;51.192;7.024;2022-08-01T01:42:17;4.60;;;3.65;;
13404;SDS011;6773;51.192;7.024;2022-08-01T01:44:44;4.30;;;3.30;;
13404;SDS011;6773;51.192;7.024;2022-08-01T01:47:14;6.60;;;3.60;;
13404;SDS011;6773;51.192;7.024;2022-08-01T01:49:41;4.03;;;3.03;;
13404;SDS011;6773;51.192;7.024;2022-08-01T01:52:10;4.65;;;3.22;;
13404;SDS011;6773;51.192;7.024;2022-08-01T01:54:42;6.03;;;5.35;;
13404;SDS011;6773;51.192;7.024;2022-08-01T01:57:11;6.95;;;4.43;;
13404;SDS011;6773;51.192;7.024;2022-08-01T01:59:39;5.18;;;4.72;;
13404;SDS011;6773;51.192;7.024;2022-08-01T02:02:07;4.38;;;3.88;;
13404;SDS011;6773;51.192;7.024;2022-08-01T02:04:35;5.68;;;3.38;;
13404;SDS011;6773;51.192;7.024;2022-08-01T02:07:05;7.43;;;4.28;;
13404;SDS011;6773;51.192;7.024;2022-08-01T02:09:33;3.85;;;2.80;;
13404;SDS011;6773;51.192;7.024;2022-08-01T02:12:02;3.70;;;2.35;;
13404;SDS011;6773;51.192;7.024;2022-08-01T02:14:28;3.30;;;2.70;;
13404;SDS011;6773;51.192;7.024;2022-08-01T02:16:55;2.40;;;2.17;;
13404;SDS011;6773;51.192;7.024;2022-08-01T02:19:24;3.53;;;2.50;;
13404;SDS011;6773;51.192;7.024;2022-08-01T02:21:57;3.08;;;2.70;;
13404;SDS011;6773;51.192;7.024;2022-08-01T02:27:11;3.20;;;2.67;;
13404;SDS011;6773;51.192;7.024;2022-08-01T02:29:43;4.32;;;3.75;;
13404;SDS011;6773;51.192;7.024;2022-08-01T02:32:16;3.97;;;3.33;;
13404;SDS011;6773;51.192;7.024;2022-08-01T02:34:48;6.07;;;4.13;;
13404;SDS011;6773;51.192;7.024;2022-08-01T02:37:16;6.47;;;5.72;;
13404;SDS011;6773;51.192;7.024;2022-08-01T02:39:43;5.05;;;3.70;;
13404;SDS011;6773;51.192;7.024;2022-08-01T02:42:14;6.13;;;4.35;;
13404;SDS011;6773;51.192;7.024;2022-08-01T02:44:43;5.20;;;2.50;;
13404;SDS011;6773;51.192;7.024;2022-08-01T02:47:11;5.28;;;3.95;;
13404;SDS011;6773;51.192;7.024;2022-08-01T02:49:39;3.50;;;3.20;;
13404;SDS011;6773;51.192;7.024;2022-08-01T02:52:10;3.15;;;2.80;;
13404;SDS011;6773;51.192;7.024;2022-08-01T02:54:39;3.58;;;3.28;;
13404;SDS011;6773;51.192;7.024;2022-08-01T02:57:08;4.68;;;3.67;;
13404;SDS011;6773;51.192;7.024;2022-08-01T02:59:36;5.22;;;3.33;;
13404;SDS011;6773;51.192;7.024;2022-08-01T03:02:03;9.07;;;4.03;;
13404;SDS011;6773;51.192;7.024;2022-08-01T03:04:30;3.28;;;2.95;;
13404;SDS011;6773;51.192;7.024;2022-08-01T03:06:58;3.88;;;3.13;;
13404;SDS011;6773;51.192;7.024;2022-08-01T03:09:27;3.70;;;2.67;;
13404;SDS011;6773;51.192;7.024;2022-08-01T03:11:55;8.60;;;3.33;;
13404;SDS011;6773;51.192;7.024;2022-08-01T03:14:25;5.88;;;3.15;;
13404;SDS011;6773;51.192;7.024;2022-08-01T03:16:52;4.03;;;2.95;;
13404;SDS011;6773;51.192;7.024;2022-08-01T03:19:20;3.80;;;3.40;;
13404;SDS011;6773;51.192;7.024;2022-08-01T03:21:47;7.32;;;4.22;;
13404;SDS011;6773;51.192;7.024;2022-08-01T03:24:14;4.10;;;3.17;;
13404;SDS011;6773;51.192;7.024;2022-08-01T03:26:42;5.10;;;3.47;;
13404;SDS011;6773;51.192;7.024;2022-08-01T03:29:09;4.65;;;2.97;;
13404;SDS011;6773;51.192;7.024;2022-08-01T03:31:39;3.15;;;2.85;;
13404;SDS011;6773;51.192;7.024;2022-08-01T03:34:08;5.15;;;3.20;;
13404;SDS011;6773;51.192;7.024;2022-08-01T03:36:34;4.05;;;3.15;;
13404;SDS011;6773;51.192;7.024;2022-08-01T03:39:08;5.35;;;3.47;;
13404;SDS011;6773;51.192;7.024;2022-08-01T03:41:38;5.60;;;3.83;;
13404;SDS011;6773;51.192;7.024;2022-08-01T03:44:07;4.63;;;4.07;;
13404;SDS011;6773;51.192;7.024;2022-08-01T03:46:40;4.22;;;3.17;;
13404;SDS011;6773;51.192;7.024;2022-08-01T03:49:20;3.70;;;3.30;;
13404;SDS011;6773;51.192;7.024;2022-08-01T03:51:48;4.60;;;3.92;;
13404;SDS011;6773;51.192;7.024;2022-08-01T03:54:16;6.88;;;4.68;;
13404;SDS011;6773;51.192;7.024;2022-08-01T03:56:45;6.15;;;4.15;;
13404;SDS011;6773;51.192;7.024;2022-08-01T03:59:15;3.83;;;3.45;;
13404;SDS011;6773;51.192;7.024;2022-08-01T04:01:43;7.05;;;5.13;;
13404;SDS011;6773;51.192;7.024;2022-08-01T04:04:10;5.03;;;3.53;;
13404;SDS011;6773;51.192;7.024;2022-08-01T04:06:39;4.13;;;3.72;;
13404;SDS011;6773;51.192;7.024;2022-08-01T04:09:08;4.55;;;3.63;;
13404;SDS011;6773;51.192;7.024;2022-08-01T04:11:34;6.35;;;4.35;;
13404;SDS011;6773;51.192;7.024;2022-08-01T04:14:00;5.65;;;4.18;;
13404;SDS011;6773;51.192;7.024;2022-08-01T04:16:26;3.85;;;3.10;;
13404;SDS011;6773;51.192;7.024;2022-08-01T04:18:51;3.53;;;3.10;;
13404;SDS011;6773;51.192;7.024;2022-08-01T04:21:20;7.20;;;5.05;;
13404;SDS011;6773;51.192;7.024;2022-08-01T04:23:49;5.47;;;3.40;;
13404;SDS011;6773;51.192;7.024;2022-08-01T04:26:18;4.47;;;3.63;;
13404;SDS011;6773;51.192;7.024;2022-08-01T04:28:44;7.57;;;5.55;;
13404;SDS011;6773;51.192;7.024;2022-08-01T04:31:12;6.47;;;4.57;;
13404;SDS011;6773;51.192;7.024;2022-08-01T04:33:43;7.63;;;3.90;;
13404;SDS011;6773;51.192;7.024;2022-08-01T04:36:13;4.63;;;4.22;;
13404;SDS011;6773;51.192;7.024;2022-08-01T04:38:42;8.40;;;5.28;;
13404;SDS011;6773;51.192;7.024;2022-08-01T04:41:13;5.75;;;4.82;;
13404;SDS011;6773;51.192;7.024;2022-08-01T04:43:39;7.35;;;5.10;;
13404;SDS011;6773;51.192;7.024;2022-08-01T04:46:06;8.23;;;6.90;;
13404;SDS011;6773;51.192;7.024;2022-08-01T04:48:34;12.48;;;5.90;;
13404;SDS011;6773;51.192;7.024;2022-08-01T04:51:03;8.05;;;4.65;;
13404;SDS011;6773;51.192;7.024;2022-08-01T04:53:29;7.85;;;4.75;;
13404;SDS011;6773;51.192;7.024;2022-08-01T04:55:57;6.57;;;5.38;;
13404;SDS011;6773;51.192;7.024;2022-08-01T04:58:23;5.43;;;4.88;;
13404;SDS011;6773;51.192;7.024;2022-08-01T05:00:48;4.38;;;3.97;;
13404;SDS011;6773;51.192;7.024;2022-08-01T05:03:14;6.15;;;5.53;;
13404;SDS011;6773;51.192;7.024;2022-08-01T05:05:40;17.65;;;14.55;;
13404;SDS011;6773;51.192;7.024;2022-08-01T05:08:06;21.20;;;16.23;;
13404;SDS011;6773;51.192;7.024;2022-08-01T05:10:31;22.67;;;16.50;;
13404;SDS011;6773;51.192;7.024;2022-08-01T05:12:57;24.75;;;18.13;;
13404;SDS011;6773;51.192;7.024;2022-08-01T05:15:23;25.77;;;19.52;;
13404;SDS011;6773;51.192;7.024;2022-08-01T05:17:49;28.23;;;20.38;;
13404;SDS011;6773;51.192;7.024;2022-08-01T05:20:15;31.52;;;21.10;;
13404;SDS011;6773;51.192;7.024;2022-08-01T05:22:41;34.97;;;21.02;;
13404;SDS011;6773;51.192;7.024;2022-08-01T05:25:07;30.77;;;19.70;;
13404;SDS011;6773;51.192;7.024;2022-08-01T05:27:33;30.63;;;21.17;;
13404;SDS011;6773;51.192;7.024;2022-08-01T05:30:08;33.92;;;21.42;;
13404;SDS011;6773;51.192;7.024;2022-08-01T05:32:34;35.28;;;22.25;;
13404;SDS011;6773;51.192;7.024;2022-08-01T05:35:00;32.38;;;21.80;;
13404;SDS011;6773;51.192;7.024;2022-08-01T05:37:26;36.95;;;22.60;;
13404;SDS011;6773;51.192;7.024;2022-08-01T05:39:51;35.13;;;23.30;;
13404;SDS011;6773;51.192;7.024;2022-08-01T05:42:17;35.05;;;22.08;;
13404;SDS011;6773;51.192;7.024;2022-08-01T05:44:43;35.85;;;23.33;;
13404;SDS011;6773;51.192;7.024;2022-08-01T05:47:08;36.97;;;23.65;;
13404;SDS011;6773;51.192;7.024;2022-08-01T05:49:34;37.08;;;23.20;;
13404;SDS011;6773;51.192;7.024;2022-08-01T05:52:00;39.90;;;24.50;;
13404;SDS011;6773;51.192;7.024;2022-08-01T05:54:26;38.42;;;23.80;;
13404;SDS011;6773;51.192;7.024;2022-08-01T05:56:52;41.30;;;25.20;;
13404;SDS011;6773;51.192;7.024;2022-08-01T05:59:19;37.88;;;22.65;;
13404;SDS011;6773;51.192;7.024;2022-08-01T06:01:45;36.58;;;24.13;;
13404;SDS011;6773;51.192;7.024;2022-08-01T06:04:11;37.28;;;24.08;;
13404;SDS011;6773;51.192;7.024;2022-08-01T06:06:37;36.13;;;24.48;;
13404;SDS011;6773;51.192;7.024;2022-08-01T06:09:03;38.90;;;22.85;;
13404;SDS011;6773;51.192;7.024;2022-08-01T06:11:29;33.97;;;24.05;;
13404;SDS011;6773;51.192;7.024;2022-08-01T06:13:54;34.13;;;23.85;;
13404;SDS011;6773;51.192;7.024;2022-08-01T06:16:20;38.42;;;22.88;;
13404;SDS011;6773;51.192;7.024;2022-08-01T06:18:46;33.10;;;22.55;;
13404;SDS011;6773;51.192;7.024;2022-08-01T06:21:12;33.83;;;23.23;;
13404;SDS011;6773;51.192;7.024;2022-08-01T06:23:38;35.08;;;22.58;;
13404;SDS011;6773;51.192;7.024;2022-08-01T06:26:03;34.42;;;21.70;;
13404;SDS011;6773;51.192;7.024;2022-08-01T06:28:29;36.65;;;22.85;;
13404;SDS011;6773;51.192;7.024;2022-08-01T06:30:55;34.40;;;22.08;;
13404;SDS011;6773;51.192;7.024;2022-08-01T06:33:23;36.20;;;23.95;;
13404;SDS011;6773;51.192;7.024;2022-08-01T06:35:48;29.58;;;21.02;;
13404;SDS011;6773;51.192;7.024;2022-08-01T06:38:14;35.15;;;22.60;;
13404;SDS011;6773;51.192;7.024;2022-08-01T06:40:40;31.88;;;22.13;;
13404;SDS011;6773;51.192;7.024;2022-08-01T06:43:05;32.20;;;22.23;;
13404;SDS011;6773;51.192;7.024;2022-08-01T06:45:31;30.77;;;22.40;;
13404;SDS011;6773;51.192;7.024;2022-08-01T06:47:57;31.75;;;22.10;;
13404;SDS011;6773;51.192;7.024;2022-08-01T06:50:22;30.73;;;21.13;;
13404;SDS011;6773;51.192;7.024;2022-08-01T06:52:48;28.42;;;21.20;;
13404;SDS011;6773;51.192;7.024;2022-08-01T06:55:13;27.10;;;19.73;;
13404;SDS011;6773;51.192;7.024;2022-08-01T06:57:44;27.50;;;18.77;;
13404;SDS011;6773;51.192;7.024;2022-08-01T07:00:15;24.23;;;19.17;;
13404;SDS011;6773;51.192;7.024;2022-08-01T07:02:43;26.02;;;18.88;;
13404;SDS011;6773;51.192;7.024;2022-08-01T07:05:10;24.27;;;20.23;;
13404;SDS011;6773;51.192;7.024;2022-08-01T07:07:35;26.40;;;19.48;;
13404;SDS011;6773;51.192;7.024;2022-08-01T07:10:02;27.35;;;21.45;;
13404;SDS011;6773;51.192;7.024;2022-08-01T07:12:28;29.63;;;22.20;;
13404;SDS011;6773;51.192;7.024;2022-08-01T07:14:53;30.55;;;23.15;;
13404;SDS011;6773;51.192;7.024;2022-08-01T07:17:19;27.70;;;22.63;;
13404;SDS011;6773;51.192;7.024;2022-08-01T07:19:45;25.13;;;22.30;;
13404;SDS011;6773;51.192;7.024;2022-08-01T07:22:11;23.95;;;21.20;;
13404;SDS011;6773;51.192;7.024;2022-08-01T07:24:38;25.85;;;22.38;;
13404;SDS011;6773;51.192;7.024;2022-08-01T07:27:04;27.17;;;22.05;;
13404;SDS011;6773;51.192;7.024;2022-08-01T07:29:30;25.35;;;21.25;;
13404;SDS011;6773;51.192;7.024;2022-08-01T07:31:56;26.40;;;20.73;;
13404;SDS011;6773;51.192;7.024;2022-08-01T07:34:23;22.00;;;19.80;;
13404;SDS011;6773;51.192;7.024;2022-08-01T07:36:50;24.27;;;21.67;;
13404;SDS011;6773;51.192;7.024;2022-08-01T07:39:16;24.42;;;20.65;;
13404;SDS011;6773;51.192;7.024;2022-08-01T07:41:42;20.42;;;18.33;;
13404;SDS011;6773;51.192;7.024;2022-08-01T07:44:07;19.92;;;17.08;;
13404;SDS011;6773;51.192;7.024;2022-08-01T07:46:33;15.32;;;12.70;;
13404;SDS011;6773;51.192;7.024;2022-08-01T07:48:59;18.50;;;14.77;;
13404;SDS011;6773;51.192;7.024;2022-08-01T07:51:24;14.98;;;13.48;;
13404;SDS011;6773;51.192;7.024;2022-08-01T07:53:50;15.63;;;13.98;;
13404;SDS011;6773;51.192;7.024;2022-08-01T07:56:15;16.42;;;12.95;;
13404;SDS011;6773;51.192;7.024;2022-08-01T07:58:42;13.50;;;12.02;;
13404;SDS011;6773;51.192;7.024;2022-08-01T08:01:07;13.18;;;11.02;;
13404;SDS011;6773;51.192;7.024;2022-08-01T08:03:33;12.27;;;9.25;;
13404;SDS011;6773;51.192;7.024;2022-08-01T08:05:58;12.90;;;9.38;;
13404;SDS011;6773;51.192;7.024;2022-08-01T08:08:25;13.00;;;9.23;;
13404;SDS011;6773;51.192;7.024;2022-08-01T08:10:51;13.50;;;9.40;;
13404;SDS011;6773;51.192;7.024;2022-08-01T08:13:16;11.77;;;9.60;;
13404;SDS011;6773;51.192;7.024;2022-08-01T08:15:42;8.63;;;7.60;;
13404;SDS011;6773;51.192;7.024;2022-08-01T08:18:08;9.75;;;8.50;;
13404;SDS011;6773;51.192;7.024;2022-08-01T08:20:34;7.88;;;6.75;;
13404;SDS011;6773;51.192;7.024;2022-08-01T08:23:00;9.20;;;6.88;;
13404;SDS011;6773;51.192;7.024;2022-08-01T08:25:26;9.55;;;7.13;;
13404;SDS011;6773;51.192;7.024;2022-08-01T08:27:53;7.35;;;6.65;;
13404;SDS011;6773;51.192;7.024;2022-08-01T08:30:19;8.85;;;6.30;;
13404;SDS011;6773;51.192;7.024;2022-08-01T08:32:45;7.15;;;6.45;;
13404;SDS011;6773;51.192;7.024;2022-08-01T08:35:11;8.63;;;6.00;;
13404;SDS011;6773;51.192;7.024;2022-08-01T08:37:37;7.85;;;5.93;;
13404;SDS011;6773;51.192;7.024;2022-08-01T08:40:03;7.30;;;5.50;;
13404;SDS011;6773;51.192;7.024;2022-08-01T08:42:30;7.18;;;5.78;;
13404;SDS011;6773;51.192;7.024;2022-08-01T08:44:56;5.70;;;5.15;;
13404;SDS011;6773;51.192;7.024;2022-08-01T08:47:22;5.03;;;4.45;;
13404;SDS011;6773;51.192;7.024;2022-08-01T08:49:50;5.22;;;4.72;;
13404;SDS011;6773;51.192;7.024;2022-08-01T08:52:20;6.68;;;4.13;;
13404;SDS011;6773;51.192;7.024;2022-08-01T08:54:46;6.32;;;4.20;;
13404;SDS011;6773;51.192;7.024;2022-08-01T08:57:13;5.43;;;4.38;;
13404;SDS011;6773;51.192;7.024;2022-08-01T08:59:39;4.10;;;3.70;;
13404;SDS011;6773;51.192;7.024;2022-08-01T09:02:05;4.38;;;3.97;;
13404;SDS011;6773;51.192;7.024;2022-08-01T09:04:34;4.88;;;4.47;;
13404;SDS011;6773;51.192;7.024;2022-08-01T09:07:01;5.38;;;3.92;;
13404;SDS011;6773;51.192;7.024;2022-08-01T09:09:28;4.50;;;4.10;;
13404;SDS011;6773;51.192;7.024;2022-08-01T09:11:54;4.35;;;3.95;;
13404;SDS011;6773;51.192;7.024;2022-08-01T09:14:21;5.05;;;4.38;;
13404;SDS011;6773;51.192;7.024;2022-08-01T09:19:44;7.55;;;4.60;;
13404;SDS011;6773;51.192;7.024;2022-08-01T09:22:20;5.82;;;4.95;;
13404;SDS011;6773;51.192;7.024;2022-08-01T09:27:34;7.03;;;5.68;;
13404;SDS011;6773;51.192;7.024;2022-08-01T09:30:10;6.72;;;5.15;;
13404;SDS011;6773;51.192;7.024;2022-08-01T09:35:30;6.57;;;4.45;;
13404;SDS011;6773;51.192;7.024;2022-08-01T09:38:11;5.30;;;4.80;;
13404;SDS011;6773;51.192;7.024;2022-08-01T09:40:51;5.15;;;4.43;;
13404;SDS011;6773;51.192;7.024;2022-08-01T09:43:25;4.82;;;3.60;;
13404;SDS011;6773;51.192;7.024;2022-08-01T09:45:52;5.22;;;4.47;;
13404;SDS011;6773;51.192;7.024;2022-08-01T09:48:20;4.40;;;3.53;;
13404;SDS011;6773;51.192;7.024;2022-08-01T09:50:47;3.28;;;2.97;;
13404;SDS011;6773;51.192;7.024;2022-08-01T09:53:15;3.58;;;3.20;;
13404;SDS011;6773;51.192;7.024;2022-08-01T09:55:41;3.25;;;2.95;;
13404;SDS011;6773;51.192;7.024;2022-08-01T09:58:07;3.80;;;3.50;;
13404;SDS011;6773;51.192;7.024;2022-08-01T10:00:35;3.60;;;3.30;;
13404;SDS011;6773;51.192;7.024;2022-08-01T10:03:18;4.22;;;3.30;;
13404;SDS011;6773;51.192;7.024;2022-08-01T10:05:45;4.13;;;3.47;;
13404;SDS011;6773;51.192;7.024;2022-08-01T10:08:12;3.47;;;3.15;;
13404;SDS011;6773;51.192;7.024;2022-08-01T10:10:38;3.13;;;2.83;;
13404;SDS011;6773;51.192;7.024;2022-08-01T10:13:04;3.60;;;3.30;;
13404;SDS011;6773;51.192;7.024;2022-08-01T10:15:31;3.53;;;3.00;;
13404;SDS011;6773;51.192;7.024;2022-08-01T10:17:57;3.78;;;3.47;;
13404;SDS011;6773;51.192;7.024;2022-08-01T10:20:26;5.57;;;3.80;;
13404;SDS011;6773;51.192;7.024;2022-08-01T10:22:53;4.40;;;3.22;;
13404;SDS011;6773;51.192;7.024;2022-08-01T10:25:20;4.07;;;3.15;;
13404;SDS011;6773;51.192;7.024;2022-08-01T10:27:50;3.90;;;3.47;;
13404;SDS011;6773;51.192;7.024;2022-08-01T10:30:20;3.58;;;3.28;;
13404;SDS011;6773;51.192;7.024;2022-08-01T10:32:46;4.18;;;3.13;;
13404;SDS011;6773;51.192;7.024;2022-08-01T10:35:12;3.00;;;2.70;;
13404;SDS011;6773;51.192;7.024;2022-08-01T10:37:42;5.10;;;3.28;;
13404;SDS011;6773;51.192;7.024;2022-08-01T10:40:11;3.10;;;2.80;;
13404;SDS011;6773;51.192;7.024;2022-08-01T10:42:39;3.05;;;2.35;;
13404;SDS011;6773;51.192;7.024;2022-08-01T10:45:06;3.38;;;2.67;;
13404;SDS011;6773;51.192;7.024;2022-08-01T10:50:44;4.90;;;2.63;;
13404;SDS011;6773;51.192;7.024;2022-08-01T10:53:18;4.05;;;3.35;;
13404;SDS011;6773;51.192;7.024;2022-08-01T10:55:49;3.28;;;2.97;;
13404;SDS011;6773;51.192;7.024;2022-08-01T10:58:20;3.40;;;2.85;;
13404;SDS011;6773;51.192;7.024;2022-08-01T11:00:48;2.75;;;2.55;;
13404;SDS011;6773;51.192;7.024;2022-08-01T11:03:14;2.72;;;2.50;;
13404;SDS011;6773;51.192;7.024;2022-08-01T11:05:39;3.13;;;2.60;;
13404;SDS011;6773;51.192;7.024;2022-08-01T11:08:10;3.13;;;2.85;;
13404;SDS011;6773;51.192;7.024;2022-08-01T11:10:46;2.45;;;2.10;;
13404;SDS011;6773;51.192;7.024;2022-08-01T11:13:12;2.47;;;2.28;;
13404;SDS011;6773;51.192;7.024;2022-08-01T11:15:38;4.15;;;2.28;;
13404;SDS011;6773;51.192;7.024;2022-08-01T11:20:55;2.15;;;1.83;;
13404;SDS011;6773;51.192;7.024;2022-08-01T11:23:23;2.33;;;1.90;;
13404;SDS011;6773;51.192;7.024;2022-08-01T11:30:45;2.20;;;2.00;;
13404;SDS011;6773;51.192;7.024;2022-08-01T11:33:12;3.35;;;1.88;;
13404;SDS011;6773;51.192;7.024;2022-08-01T11:38:44;2.13;;;1.70;;
13404;SDS011;6773;51.192;7.024;2022-08-01T11:41:21;2.47;;;1.80;;
13404;SDS011;6773;51.192;7.024;2022-08-01T11:49:43;2.00;;;1.80;;
13404;SDS011;6773;51.192;7.024;2022-08-01T11:55:08;1.70;;;1.60;;
13404;SDS011;6773;51.192;7.024;2022-08-01T11:57:34;1.80;;;1.58;;
13404;SDS011;6773;51.192;7.024;2022-08-01T12:00:23;2.05;;;1.75;;
13404;SDS011;6773;51.192;7.024;2022-08-01T12:02:55;1.92;;;1.65;;
13404;SDS011;6773;51.192;7.024;2022-08-01T12:05:25;1.60;;;1.50;;
13404;SDS011;6773;51.192;7.024;2022-08-01T12:07:53;1.50;;;1.40;;
13404;SDS011;6773;51.192;7.024;2022-08-01T12:10:20;2.15;;;1.70;;
13404;SDS011;6773;51.192;7.024;2022-08-01T12:12:54;2.85;;;1.80;;
13404;SDS011;6773;51.192;7.024;2022-08-01T12:15:24;1.42;;;1.33;;
13404;SDS011;6773;51.192;7.024;2022-08-01T12:17:57;1.85;;;1.60;;
13404;SDS011;6773;51.192;7.024;2022-08-01T12:20:34;1.73;;;1.60;;
13404;SDS011;6773;51.192;7.024;2022-08-01T12:23:07;1.40;;;1.30;;
13404;SDS011;6773;51.192;7.024;2022-08-01T12:25:35;1.70;;;1.60;;
13404;SDS011;6773;51.192;7.024;2022-08-01T12:28:05;1.60;;;1.50;;
13404;SDS011;6773;51.192;7.024;2022-08-01T12:30:33;1.55;;;1.45;;
13404;SDS011;6773;51.192;7.024;2022-08-01T12:33:00;1.40;;;1.30;;
13404;SDS011;6773;51.192;7.024;2022-08-01T12:35:28;2.05;;;1.83;;
13404;SDS011;6773;51.192;7.024;2022-08-01T12:37:56;2.47;;;2.22;;
13404;SDS011;6773;51.192;7.024;2022-08-01T12:40:24;2.60;;;1.92;;
13404;SDS011;6773;51.192;7.024;2022-08-01T12:43:00;2.60;;;2.40;;
13404;SDS011;6773;51.192;7.024;2022-08-01T12:45:31;2.40;;;2.17;;
13404;SDS011;6773;51.192;7.024;2022-08-01T12:47:59;2.47;;;2.22;;
13404;SDS011;6773;51.192;7.024;2022-08-01T12:50:27;2.67;;;1.92;;
13404;SDS011;6773;51.192;7.024;2022-08-01T12:52:54;2.42;;;1.70;;
13404;SDS011;6773;51.192;7.024;2022-08-01T12:55:22;2.88;;;1.70;;
13404;SDS011;6773;51.192;7.024;2022-08-01T12:57:50;2.08;;;1.77;;
13404;SDS011;6773;51.192;7.024;2022-08-01T13:00:32;2.30;;;1.80;;
13404;SDS011;6773;51.192;7.024;2022-08-01T13:03:00;2.95;;;2.10;;
13404;SDS011;6773;51.192;7.024;2022-08-01T13:08:21;2.50;;;1.90;;
13404;SDS011;6773;51.192;7.024;2022-08-01T13:10:47;3.17;;;1.98;;
13404;SDS011;6773;51.192;7.024;2022-08-01T13:13:14;1.83;;;1.73;;
13404;SDS011;6773;51.192;7.024;2022-08-01T13:15:41;1.75;;;1.60;;
13404;SDS011;6773;51.192;7.024;2022-08-01T13:20:50;2.20;;;2.00;;
13404;SDS011;6773;51.192;7.024;2022-08-01T13:23:35;2.75;;;1.83;;
13404;SDS011;6773;51.192;7.024;2022-08-01T13:26:01;2.53;;;1.77;;
13404;SDS011;6773;51.192;7.024;2022-08-01T13:28:28;2.08;;;1.80;;
13404;SDS011;6773;51.192;7.024;2022-08-01T13:30:56;3.22;;;1.73;;
13404;SDS011;6773;51.192;7.024;2022-08-01T13:33:39;2.58;;;1.70;;
13404;SDS011;6773;51.192;7.024;2022-08-01T13:36:09;2.08;;;1.80;;
13404;SDS011;6773;51.192;7.024;2022-08-01T13:38:34;1.63;;;1.50;;
13404;SDS011;6773;51.192;7.024;2022-08-01T13:41:19;3.50;;;1.70;;
13404;SDS011;6773;51.192;7.024;2022-08-01T13:43:44;3.15;;;2.00;;
13404;SDS011;6773;51.192;7.024;2022-08-01T13:46:10;3.45;;;2.08;;
13404;SDS011;6773;51.192;7.024;2022-08-01T13:48:36;2.05;;;1.80;;
13404;SDS011;6773;51.192;7.024;2022-08-01T13:51:01;2.10;;;1.90;;
13404;SDS011;6773;51.192;7.024;2022-08-01T13:53:27;2.20;;;1.50;;
13404;SDS011;6773;51.192;7.024;2022-08-01T13:55:53;2.63;;;1.90;;
13404;SDS011;6773;51.192;7.024;2022-08-01T13:58:19;2.10;;;1.90;;
13404;SDS011;6773;51.192;7.024;2022-08-01T14:00:44;2.55;;;1.70;;
13404;SDS011;6773;51.192;7.024;2022-08-01T14:03:11;2.40;;;2.20;;
13404;SDS011;6773;51.192;7.024;2022-08-01T14:05:37;2.50;;;2.28;;
13404;SDS011;6773;51.192;7.024;2022-08-01T14:08:02;3.30;;;2.08;;
13404;SDS011;6773;51.192;7.024;2022-08-01T14:10:28;2.08;;;1.88;;
13404;SDS011;6773;51.192;7.024;2022-08-01T14:12:57;2.80;;;2.00;;
13404;SDS011;6773;51.192;7.024;2022-08-01T14:15:23;1.88;;;1.77;;
13404;SDS011;6773;51.192;7.024;2022-08-01T14:17:49;3.40;;;1.88;;
13404;SDS011;6773;51.192;7.024;2022-08-01T14:20:15;2.05;;;1.92;;
13404;SDS011;6773;51.192;7.024;2022-08-01T14:22:44;2.17;;;2.03;;
13404;SDS011;6773;51.192;7.024;2022-08-01T14:25:10;2.22;;;2.03;;
13404;SDS011;6773;51.192;7.024;2022-08-01T14:27:36;2.47;;;1.98;;
13404;SDS011;6773;51.192;7.024;2022-08-01T14:30:03;4.88;;;2.78;;
13404;SDS011;6773;51.192;7.024;2022-08-01T14:32:29;3.08;;;2.60;;
13404;SDS011;6773;51.192;7.024;2022-08-01T14:34:55;2.58;;;2.38;;
13404;SDS011;6773;51.192;7.024;2022-08-01T14:37:21;1.90;;;1.80;;
13404;SDS011;6773;51.192;7.024;2022-08-01T14:39:48;2.33;;;2.13;;
13404;SDS011;6773;51.192;7.024;2022-08-01T14:42:14;2.30;;;2.10;;
13404;SDS011;6773;51.192;7.024;2022-08-01T14:44:39;2.15;;;2.00;;
13404;SDS011;6773;51.192;7.024;2022-08-01T14:47:05;3.75;;;2.13;;
13404;SDS011;6773;51.192;7.024;2022-08-01T14:49:30;4.18;;;2.25;;
13404;SDS011;6773;51.192;7.024;2022-08-01T14:51:56;2.33;;;2.13;;
13404;SDS011;6773;51.192;7.024;2022-08-01T14:54:22;3.13;;;2.30;;
13404;SDS011;6773;51.192;7.024;2022-08-01T14:56:48;2.35;;;2.15;;
13404;SDS011;6773;51.192;7.024;2022-08-01T14:59:14;1.88;;;1.77;;
13404;SDS011;6773;51.192;7.024;2022-08-01T15:01:40;2.38;;;1.98;;
13404;SDS011;6773;51.192;7.024;2022-08-01T15:04:05;2.20;;;2.00;;
13404;SDS011;6773;51.192;7.024;2022-08-01T15:06:31;3.63;;;1.80;;
13404;SDS011;6773;51.192;7.024;2022-08-01T15:08:56;4.28;;;1.90;;
13404;SDS011;6773;51.192;7.024;2022-08-01T15:11:22;2.10;;;1.90;;
13404;SDS011;6773;51.192;7.024;2022-08-01T15:13:48;2.00;;;1.90;;
13404;SDS011;6773;51.192;7.024;2022-08-01T15:16:33;2.88;;;1.80;;
13404;SDS011;6773;51.192;7.024;2022-08-01T15:18:59;1.85;;;1.75;;
13404;SDS011;6773;51.192;7.024;2022-08-01T15:21:24;1.95;;;1.85;;
13404;SDS011;6773;51.192;7.024;2022-08-01T15:23:50;1.85;;;1.75;;
13404;SDS011;6773;51.192;7.024;2022-08-01T15:26:16;3.60;;;1.90;;
13404;SDS011;6773;51.192;7.024;2022-08-01T15:28:41;3.25;;;1.88;;
13404;SDS011;6773;51.192;7.024;2022-08-01T15:31:08;2.28;;;1.98;;
13404;SDS011;6773;51.192;7.024;2022-08-01T15:33:33;2.38;;;2.00;;
13404;SDS011;6773;51.192;7.024;2022-08-01T15:35:59;2.30;;;2.00;;
13404;SDS011;6773;51.192;7.024;2022-08-01T15:38:25;2.10;;;2.00;;
13404;SDS011;6773;51.192;7.024;2022-08-01T15:40:51;2.13;;;1.98;;
13404;SDS011;6773;51.192;7.024;2022-08-01T15:43:17;2.17;;;2.08;;
13404;SDS011;6773;51.192;7.024;2022-08-01T15:45:42;2.58;;;1.98;;
13404;SDS011;6773;51.192;7.024;2022-08-01T15:48:08;2.25;;;2.00;;
13404;SDS011;6773;51.192;7.024;2022-08-01T15:50:33;3.00;;;2.00;;